sensor_id;sensor_type;location;lat;lon;timestamp;temperature;humidity
59533;DHT22;45351;53.596;10.000;2022-08-03T00:00:18;24.50;55.00
59533;DHT22;45351;53.596;10.000;2022-08-03T00:02:45;24.50;55.10
59533;DHT22;45351;53.596;10.000;2022-08-03T00:05:12;24.50;55.80
59533;DHT22;45351;53.596;10.000;2022-08-03T00:07:40;24.40;55.10
59533;DHT22;45351;53.596;10.000;2022-08-03T00:10:08;24.40;55.20
59533;DHT22;45351;53.596;10.000;2022-08-03T00:12:35;24.40;55.20
59533;DHT22;45351;53.596;10.000;2022-08-03T00:15:02;24.40;55.40
59533;DHT22;45351;53.596;10.000;2022-08-03T00:17:29;24.40;55.40
59533;DHT22;45351;53.596;10.000;2022-08-03T00:19:56;24.40;55.50
59533;DHT22;45351;53.596;10.000;2022-08-03T00:22:22;24.40;55.60
59533;DHT22;45351;53.596;10.000;2022-08-03T00:24:51;24.40;55.70
59533;DHT22;45351;53.596;10.000;2022-08-03T00:27:17;24.40;55.90
59533;DHT22;45351;53.596;10.000;2022-08-03T00:29:44;24.40;55.80
59533;DHT22;45351;53.596;10.000;2022-08-03T00:32:11;24.50;55.50
59533;DHT22;45351;53.596;10.000;2022-08-03T00:34:38;24.60;55.40
59533;DHT22;45351;53.596;10.000;2022-08-03T00:37:05;24.60;55.20
59533;DHT22;45351;53.596;10.000;2022-08-03T00:39:31;24.70;55.10
59533;DHT22;45351;53.596;10.000;2022-08-03T00:42:02;24.80;55.00
59533;DHT22;45351;53.596;10.000;2022-08-03T00:44:37;24.80;54.90
59533;DHT22;45351;53.596;10.000;2022-08-03T00:47:04;24.80;54.90
59533;DHT22;45351;53.596;10.000;2022-08-03T00:49:31;24.80;54.80
59533;DHT22;45351;53.596;10.000;2022-08-03T00:51:59;24.80;54.80
59533;DHT22;45351;53.596;10.000;2022-08-03T00:54:27;24.90;54.80
59533;DHT22;45351;53.596;10.000;2022-08-03T00:56:53;24.90;54.90
59533;DHT22;45351;53.596;10.000;2022-08-03T00:59:22;24.90;54.80
59533;DHT22;45351;53.596;10.000;2022-08-03T01:01:49;24.90;54.80
59533;DHT22;45351;53.596;10.000;2022-08-03T01:04:15;24.90;54.80
59533;DHT22;45351;53.596;10.000;2022-08-03T01:06:49;24.90;54.80
59533;DHT22;45351;53.596;10.000;2022-08-03T01:09:29;24.90;54.90
59533;DHT22;45351;53.596;10.000;2022-08-03T01:12:07;24.90;54.90
59533;DHT22;45351;53.596;10.000;2022-08-03T01:14:41;24.90;54.90
59533;DHT22;45351;53.596;10.000;2022-08-03T01:17:12;24.90;54.90
59533;DHT22;45351;53.596;10.000;2022-08-03T01:19:48;24.90;54.80
59533;DHT22;45351;53.596;10.000;2022-08-03T01:25:08;24.90;54.90
59533;DHT22;45351;53.596;10.000;2022-08-03T01:27:45;24.90;54.90
59533;DHT22;45351;53.596;10.000;2022-08-03T01:30:18;24.90;54.90
59533;DHT22;45351;53.596;10.000;2022-08-03T01:32:49;24.90;54.90
59533;DHT22;45351;53.596;10.000;2022-08-03T01:35:24;24.90;54.90
59533;DHT22;45351;53.596;10.000;2022-08-03T01:37:54;24.90;55.00
59533;DHT22;45351;53.596;10.000;2022-08-03T01:40:24;24.90;55.00
59533;DHT22;45351;53.596;10.000;2022-08-03T01:42:54;24.90;55.00
59533;DHT22;45351;53.596;10.000;2022-08-03T01:45:23;24.90;55.10
59533;DHT22;45351;53.596;10.000;2022-08-03T01:47:50;24.90;55.10
59533;DHT22;45351;53.596;10.000;2022-08-03T01:50:37;24.90;55.10
59533;DHT22;45351;53.596;10.000;2022-08-03T01:53:26;24.90;55.20
59533;DHT22;45351;53.596;10.000;2022-08-03T01:56:14;24.90;55.20
59533;DHT22;45351;53.596;10.000;2022-08-03T01:59:02;24.90;55.30
59533;DHT22;45351;53.596;10.000;2022-08-03T02:01:53;24.90;55.30
59533;DHT22;45351;53.596;10.000;2022-08-03T02:04:21;24.90;55.30
59533;DHT22;45351;53.596;10.000;2022-08-03T02:06:48;24.90;55.30
59533;DHT22;45351;53.596;10.000;2022-08-03T02:09:16;24.90;55.40
59533;DHT22;45351;53.596;10.000;2022-08-03T02:11:46;24.90;55.40
59533;DHT22;45351;53.596;10.000;2022-08-03T02:14:14;24.90;55.40
59533;DHT22;45351;53.596;10.000;2022-08-03T02:16:42;24.90;55.40
59533;DHT22;45351;53.596;10.000;2022-08-03T02:19:12;24.90;55.40
59533;DHT22;45351;53.596;10.000;2022-08-03T02:21:40;24.90;55.40
59533;DHT22;45351;53.596;10.000;2022-08-03T02:24:10;24.90;55.40
59533;DHT22;45351;53.596;10.000;2022-08-03T02:26:39;24.90;55.40
59533;DHT22;45351;53.596;10.000;2022-08-03T02:29:10;24.90;55.40
59533;DHT22;45351;53.596;10.000;2022-08-03T02:31:40;24.90;55.50
59533;DHT22;45351;53.596;10.000;2022-08-03T02:34:13;24.90;55.40
59533;DHT22;45351;53.596;10.000;2022-08-03T02:36:42;24.90;55.50
59533;DHT22;45351;53.596;10.000;2022-08-03T02:39:14;24.90;55.60
59533;DHT22;45351;53.596;10.000;2022-08-03T02:41:45;24.90;55.60
59533;DHT22;45351;53.596;10.000;2022-08-03T02:44:13;24.90;55.60
59533;DHT22;45351;53.596;10.000;2022-08-03T02:46:45;24.90;55.60
59533;DHT22;45351;53.596;10.000;2022-08-03T02:49:16;24.90;55.60
59533;DHT22;45351;53.596;10.000;2022-08-03T02:51:44;24.90;55.60
59533;DHT22;45351;53.596;10.000;2022-08-03T02:54:15;24.90;55.60
59533;DHT22;45351;53.596;10.000;2022-08-03T02:56:44;24.90;55.70
59533;DHT22;45351;53.596;10.000;2022-08-03T02:59:12;24.90;55.70
59533;DHT22;45351;53.596;10.000;2022-08-03T03:01:39;24.90;55.70
59533;DHT22;45351;53.596;10.000;2022-08-03T03:04:07;24.90;55.70
59533;DHT22;45351;53.596;10.000;2022-08-03T03:06:38;24.90;55.70
59533;DHT22;45351;53.596;10.000;2022-08-03T03:09:05;24.90;55.70
59533;DHT22;45351;53.596;10.000;2022-08-03T03:11:35;24.90;55.70
59533;DHT22;45351;53.596;10.000;2022-08-03T03:14:03;24.90;55.80
59533;DHT22;45351;53.596;10.000;2022-08-03T03:16:31;24.90;55.80
59533;DHT22;45351;53.596;10.000;2022-08-03T03:18:59;24.90;55.90
59533;DHT22;45351;53.596;10.000;2022-08-03T03:21:28;24.90;55.90
59533;DHT22;45351;53.596;10.000;2022-08-03T03:23:58;24.90;55.90
59533;DHT22;45351;53.596;10.000;2022-08-03T03:26:25;24.90;55.90
59533;DHT22;45351;53.596;10.000;2022-08-03T03:28:52;24.90;55.90
59533;DHT22;45351;53.596;10.000;2022-08-03T03:31:21;24.90;55.90
59533;DHT22;45351;53.596;10.000;2022-08-03T03:33:48;24.90;55.90
59533;DHT22;45351;53.596;10.000;2022-08-03T03:36:15;24.90;55.90
59533;DHT22;45351;53.596;10.000;2022-08-03T03:38:43;24.90;55.90
59533;DHT22;45351;53.596;10.000;2022-08-03T03:41:11;24.90;56.00
59533;DHT22;45351;53.596;10.000;2022-08-03T03:43:38;24.90;56.00
59533;DHT22;45351;53.596;10.000;2022-08-03T03:46:05;24.90;56.00
59533;DHT22;45351;53.596;10.000;2022-08-03T03:48:32;24.90;56.00
59533;DHT22;45351;53.596;10.000;2022-08-03T03:51:00;24.90;56.00
59533;DHT22;45351;53.596;10.000;2022-08-03T03:53:27;24.90;56.00
59533;DHT22;45351;53.596;10.000;2022-08-03T03:55:54;24.90;56.00
59533;DHT22;45351;53.596;10.000;2022-08-03T03:58:23;24.90;56.00
59533;DHT22;45351;53.596;10.000;2022-08-03T04:00:49;24.90;56.10
59533;DHT22;45351;53.596;10.000;2022-08-03T04:03:18;24.90;56.10
59533;DHT22;45351;53.596;10.000;2022-08-03T04:05:45;24.90;56.10
59533;DHT22;45351;53.596;10.000;2022-08-03T04:08:29;24.90;56.20
59533;DHT22;45351;53.596;10.000;2022-08-03T04:11:17;24.90;56.20
59533;DHT22;45351;53.596;10.000;2022-08-03T04:13:50;24.90;56.30
59533;DHT22;45351;53.596;10.000;2022-08-03T04:16:21;24.90;56.40
59533;DHT22;45351;53.596;10.000;2022-08-03T04:18:53;24.90;56.40
59533;DHT22;45351;53.596;10.000;2022-08-03T04:21:21;24.90;56.40
59533;DHT22;45351;53.596;10.000;2022-08-03T04:23:52;24.90;56.40
59533;DHT22;45351;53.596;10.000;2022-08-03T04:26:21;24.90;56.40
59533;DHT22;45351;53.596;10.000;2022-08-03T04:28:50;24.90;56.40
59533;DHT22;45351;53.596;10.000;2022-08-03T04:31:19;24.90;56.40
59533;DHT22;45351;53.596;10.000;2022-08-03T04:33:49;24.90;56.40
59533;DHT22;45351;53.596;10.000;2022-08-03T04:36:21;24.90;56.40
59533;DHT22;45351;53.596;10.000;2022-08-03T04:38:55;24.90;56.40
59533;DHT22;45351;53.596;10.000;2022-08-03T04:41:24;24.90;56.40
59533;DHT22;45351;53.596;10.000;2022-08-03T04:43:56;24.90;56.40
59533;DHT22;45351;53.596;10.000;2022-08-03T04:46:26;24.90;56.40
59533;DHT22;45351;53.596;10.000;2022-08-03T04:48:54;24.90;56.50
59533;DHT22;45351;53.596;10.000;2022-08-03T04:51:21;24.90;56.50
59533;DHT22;45351;53.596;10.000;2022-08-03T04:53:48;24.90;56.40
59533;DHT22;45351;53.596;10.000;2022-08-03T04:56:15;24.90;56.50
59533;DHT22;45351;53.596;10.000;2022-08-03T04:58:42;24.90;56.50
59533;DHT22;45351;53.596;10.000;2022-08-03T05:01:10;24.90;56.50
59533;DHT22;45351;53.596;10.000;2022-08-03T05:03:37;24.90;56.60
59533;DHT22;45351;53.596;10.000;2022-08-03T05:06:05;24.90;56.50
59533;DHT22;45351;53.596;10.000;2022-08-03T05:08:31;24.90;56.50
59533;DHT22;45351;53.596;10.000;2022-08-03T05:10:58;24.90;56.50
59533;DHT22;45351;53.596;10.000;2022-08-03T05:13:25;24.90;57.20
59533;DHT22;45351;53.596;10.000;2022-08-03T05:15:52;25.00;56.70
59533;DHT22;45351;53.596;10.000;2022-08-03T05:18:20;24.90;56.60
59533;DHT22;45351;53.596;10.000;2022-08-03T05:20:47;24.90;56.70
59533;DHT22;45351;53.596;10.000;2022-08-03T05:23:14;25.00;56.70
59533;DHT22;45351;53.596;10.000;2022-08-03T05:25:41;25.00;56.70
59533;DHT22;45351;53.596;10.000;2022-08-03T05:28:08;24.90;56.70
59533;DHT22;45351;53.596;10.000;2022-08-03T05:30:36;25.00;56.70
59533;DHT22;45351;53.596;10.000;2022-08-03T05:33:03;25.00;56.70
59533;DHT22;45351;53.596;10.000;2022-08-03T05:35:32;25.00;56.70
59533;DHT22;45351;53.596;10.000;2022-08-03T05:37:59;25.00;56.70
59533;DHT22;45351;53.596;10.000;2022-08-03T05:40:26;25.00;56.70
59533;DHT22;45351;53.596;10.000;2022-08-03T05:42:53;25.00;56.70
59533;DHT22;45351;53.596;10.000;2022-08-03T05:45:20;25.00;56.60
59533;DHT22;45351;53.596;10.000;2022-08-03T05:47:47;25.00;56.60
59533;DHT22;45351;53.596;10.000;2022-08-03T05:50:16;25.00;56.60
59533;DHT22;45351;53.596;10.000;2022-08-03T05:52:44;25.00;56.60
59533;DHT22;45351;53.596;10.000;2022-08-03T05:55:11;25.00;56.70
59533;DHT22;45351;53.596;10.000;2022-08-03T05:57:39;25.00;56.60
59533;DHT22;45351;53.596;10.000;2022-08-03T06:00:08;25.10;56.70
59533;DHT22;45351;53.596;10.000;2022-08-03T06:02:38;25.10;56.70
59533;DHT22;45351;53.596;10.000;2022-08-03T06:05:06;25.10;56.60
59533;DHT22;45351;53.596;10.000;2022-08-03T06:07:33;25.10;56.60
59533;DHT22;45351;53.596;10.000;2022-08-03T06:10:02;25.10;56.60
59533;DHT22;45351;53.596;10.000;2022-08-03T06:12:29;25.10;56.60
59533;DHT22;45351;53.596;10.000;2022-08-03T06:14:56;25.10;56.60
59533;DHT22;45351;53.596;10.000;2022-08-03T06:17:23;25.10;56.70
59533;DHT22;45351;53.596;10.000;2022-08-03T06:19:51;25.10;56.70
59533;DHT22;45351;53.596;10.000;2022-08-03T06:22:18;25.10;56.60
59533;DHT22;45351;53.596;10.000;2022-08-03T06:24:45;25.10;56.60
59533;DHT22;45351;53.596;10.000;2022-08-03T06:27:14;25.10;56.60
59533;DHT22;45351;53.596;10.000;2022-08-03T06:29:41;25.10;56.50
59533;DHT22;45351;53.596;10.000;2022-08-03T06:32:07;25.10;56.50
59533;DHT22;45351;53.596;10.000;2022-08-03T06:34:34;25.10;56.50
59533;DHT22;45351;53.596;10.000;2022-08-03T06:37:01;25.10;56.40
59533;DHT22;45351;53.596;10.000;2022-08-03T06:39:28;25.10;56.40
59533;DHT22;45351;53.596;10.000;2022-08-03T06:41:55;25.10;56.50
59533;DHT22;45351;53.596;10.000;2022-08-03T06:44:23;25.10;56.50
59533;DHT22;45351;53.596;10.000;2022-08-03T06:46:50;25.10;56.50
59533;DHT22;45351;53.596;10.000;2022-08-03T06:49:17;25.10;56.30
59533;DHT22;45351;53.596;10.000;2022-08-03T06:51:44;25.10;56.20
59533;DHT22;45351;53.596;10.000;2022-08-03T06:54:11;25.10;56.20
59533;DHT22;45351;53.596;10.000;2022-08-03T06:56:38;25.10;56.00
59533;DHT22;45351;53.596;10.000;2022-08-03T06:59:05;25.10;56.00
59533;DHT22;45351;53.596;10.000;2022-08-03T07:01:33;25.10;56.50
59533;DHT22;45351;53.596;10.000;2022-08-03T07:04:00;25.10;55.80
59533;DHT22;45351;53.596;10.000;2022-08-03T07:06:27;25.10;55.80
59533;DHT22;45351;53.596;10.000;2022-08-03T07:08:53;25.10;55.70
59533;DHT22;45351;53.596;10.000;2022-08-03T07:11:21;25.10;55.70
59533;DHT22;45351;53.596;10.000;2022-08-03T07:13:48;25.10;55.70
59533;DHT22;45351;53.596;10.000;2022-08-03T07:16:15;25.10;55.60
59533;DHT22;45351;53.596;10.000;2022-08-03T07:18:43;25.10;55.60
59533;DHT22;45351;53.596;10.000;2022-08-03T07:21:11;25.10;55.50
59533;DHT22;45351;53.596;10.000;2022-08-03T07:23:38;25.10;55.50
59533;DHT22;45351;53.596;10.000;2022-08-03T07:26:05;25.10;55.50
59533;DHT22;45351;53.596;10.000;2022-08-03T07:28:31;25.10;55.50
59533;DHT22;45351;53.596;10.000;2022-08-03T07:30:58;25.10;55.40
59533;DHT22;45351;53.596;10.000;2022-08-03T07:33:25;25.10;55.40
59533;DHT22;45351;53.596;10.000;2022-08-03T07:35:53;25.10;55.50
59533;DHT22;45351;53.596;10.000;2022-08-03T07:38:20;25.20;55.60
59533;DHT22;45351;53.596;10.000;2022-08-03T07:40:47;25.20;55.50
59533;DHT22;45351;53.596;10.000;2022-08-03T07:43:14;25.20;55.40
59533;DHT22;45351;53.596;10.000;2022-08-03T07:45:42;25.20;55.40
59533;DHT22;45351;53.596;10.000;2022-08-03T07:48:08;25.20;55.30
59533;DHT22;45351;53.596;10.000;2022-08-03T07:50:35;25.20;55.30
59533;DHT22;45351;53.596;10.000;2022-08-03T07:53:04;25.20;55.30
59533;DHT22;45351;53.596;10.000;2022-08-03T07:55:30;25.20;55.30
59533;DHT22;45351;53.596;10.000;2022-08-03T07:58:05;25.20;55.30
59533;DHT22;45351;53.596;10.000;2022-08-03T08:00:34;25.20;55.90
59533;DHT22;45351;53.596;10.000;2022-08-03T08:03:02;25.20;55.20
59533;DHT22;45351;53.596;10.000;2022-08-03T08:05:29;25.20;55.20
59533;DHT22;45351;53.596;10.000;2022-08-03T08:07:56;25.20;55.10
59533;DHT22;45351;53.596;10.000;2022-08-03T08:10:25;25.20;55.10
59533;DHT22;45351;53.596;10.000;2022-08-03T08:12:52;25.20;55.00
59533;DHT22;45351;53.596;10.000;2022-08-03T08:15:19;25.20;55.00
59533;DHT22;45351;53.596;10.000;2022-08-03T08:17:48;25.30;55.00
59533;DHT22;45351;53.596;10.000;2022-08-03T08:20:17;25.20;54.90
59533;DHT22;45351;53.596;10.000;2022-08-03T08:22:44;25.20;54.90
59533;DHT22;45351;53.596;10.000;2022-08-03T08:25:11;25.20;54.80
59533;DHT22;45351;53.596;10.000;2022-08-03T08:27:44;25.20;54.80
59533;DHT22;45351;53.596;10.000;2022-08-03T08:30:12;25.30;54.70
59533;DHT22;45351;53.596;10.000;2022-08-03T08:32:40;25.30;54.70
59533;DHT22;45351;53.596;10.000;2022-08-03T08:35:08;25.30;54.70
59533;DHT22;45351;53.596;10.000;2022-08-03T08:37:35;25.30;54.70
59533;DHT22;45351;53.596;10.000;2022-08-03T08:40:03;25.30;54.70
59533;DHT22;45351;53.596;10.000;2022-08-03T08:42:31;25.30;54.70
59533;DHT22;45351;53.596;10.000;2022-08-03T08:44:59;25.30;54.70
59533;DHT22;45351;53.596;10.000;2022-08-03T08:47:30;25.30;54.70
59533;DHT22;45351;53.596;10.000;2022-08-03T08:49:58;25.20;54.60
59533;DHT22;45351;53.596;10.000;2022-08-03T08:52:26;25.30;54.60
59533;DHT22;45351;53.596;10.000;2022-08-03T08:54:55;25.30;55.20
59533;DHT22;45351;53.596;10.000;2022-08-03T08:57:24;25.30;54.60
59533;DHT22;45351;53.596;10.000;2022-08-03T08:59:52;25.30;54.60
59533;DHT22;45351;53.596;10.000;2022-08-03T09:02:23;25.30;54.60
59533;DHT22;45351;53.596;10.000;2022-08-03T09:04:50;25.30;54.60
59533;DHT22;45351;53.596;10.000;2022-08-03T09:07:17;25.30;54.60
59533;DHT22;45351;53.596;10.000;2022-08-03T09:09:44;25.30;54.60
59533;DHT22;45351;53.596;10.000;2022-08-03T09:12:10;25.30;54.60
59533;DHT22;45351;53.596;10.000;2022-08-03T09:14:37;25.30;54.60
59533;DHT22;45351;53.596;10.000;2022-08-03T09:17:04;25.30;54.60
59533;DHT22;45351;53.596;10.000;2022-08-03T09:19:33;25.30;54.60
59533;DHT22;45351;53.596;10.000;2022-08-03T09:22:10;25.30;54.60
59533;DHT22;45351;53.596;10.000;2022-08-03T09:24:52;25.30;54.60
59533;DHT22;45351;53.596;10.000;2022-08-03T09:27:20;25.30;54.60
59533;DHT22;45351;53.596;10.000;2022-08-03T09:29:48;25.30;54.60
59533;DHT22;45351;53.596;10.000;2022-08-03T09:32:18;25.30;54.60
59533;DHT22;45351;53.596;10.000;2022-08-03T09:34:47;25.30;54.70
59533;DHT22;45351;53.596;10.000;2022-08-03T09:37:16;25.30;54.70
59533;DHT22;45351;53.596;10.000;2022-08-03T09:39:43;25.30;54.70
59533;DHT22;45351;53.596;10.000;2022-08-03T09:42:11;25.30;54.60
59533;DHT22;45351;53.596;10.000;2022-08-03T09:44:41;25.30;54.60
59533;DHT22;45351;53.596;10.000;2022-08-03T09:47:08;25.30;54.60
59533;DHT22;45351;53.596;10.000;2022-08-03T09:49:35;25.30;54.60
59533;DHT22;45351;53.596;10.000;2022-08-03T09:52:14;25.30;54.80
59533;DHT22;45351;53.596;10.000;2022-08-03T09:54:41;25.30;55.10
59533;DHT22;45351;53.596;10.000;2022-08-03T09:57:19;25.40;55.10
59533;DHT22;45351;53.596;10.000;2022-08-03T09:59:47;25.40;55.10
59533;DHT22;45351;53.596;10.000;2022-08-03T10:02:21;25.40;55.10
59533;DHT22;45351;53.596;10.000;2022-08-03T10:04:49;25.40;55.00
59533;DHT22;45351;53.596;10.000;2022-08-03T10:07:19;25.40;55.00
59533;DHT22;45351;53.596;10.000;2022-08-03T10:09:53;25.40;55.00
59533;DHT22;45351;53.596;10.000;2022-08-03T10:12:21;25.40;55.00
59533;DHT22;45351;53.596;10.000;2022-08-03T10:14:48;25.40;55.00
59533;DHT22;45351;53.596;10.000;2022-08-03T10:17:15;25.40;55.00
59533;DHT22;45351;53.596;10.000;2022-08-03T10:19:41;25.40;55.00
59533;DHT22;45351;53.596;10.000;2022-08-03T10:22:12;25.40;54.90
59533;DHT22;45351;53.596;10.000;2022-08-03T10:24:47;25.40;54.90
59533;DHT22;45351;53.596;10.000;2022-08-03T10:27:16;25.40;55.00
59533;DHT22;45351;53.596;10.000;2022-08-03T10:29:48;25.40;55.00
59533;DHT22;45351;53.596;10.000;2022-08-03T10:32:20;25.40;55.00
59533;DHT22;45351;53.596;10.000;2022-08-03T10:34:49;25.40;55.00
59533;DHT22;45351;53.596;10.000;2022-08-03T10:37:17;25.40;54.90
59533;DHT22;45351;53.596;10.000;2022-08-03T10:39:46;25.40;54.90
59533;DHT22;45351;53.596;10.000;2022-08-03T10:42:22;25.40;54.90
59533;DHT22;45351;53.596;10.000;2022-08-03T10:44:54;25.40;54.90
59533;DHT22;45351;53.596;10.000;2022-08-03T10:47:21;25.40;54.90
59533;DHT22;45351;53.596;10.000;2022-08-03T10:49:49;25.40;54.90
59533;DHT22;45351;53.596;10.000;2022-08-03T10:52:16;25.40;54.80
59533;DHT22;45351;53.596;10.000;2022-08-03T10:54:45;25.40;54.80
59533;DHT22;45351;53.596;10.000;2022-08-03T10:57:45;25.40;54.80
59533;DHT22;45351;53.596;10.000;2022-08-03T11:00:13;25.40;54.80
59533;DHT22;45351;53.596;10.000;2022-08-03T11:05:46;25.40;54.90
59533;DHT22;45351;53.596;10.000;2022-08-03T11:08:25;25.40;54.90
59533;DHT22;45351;53.596;10.000;2022-08-03T11:10:55;25.40;54.80
59533;DHT22;45351;53.596;10.000;2022-08-03T11:13:23;25.40;54.70
59533;DHT22;45351;53.596;10.000;2022-08-03T11:15:52;25.40;54.90
59533;DHT22;45351;53.596;10.000;2022-08-03T11:18:19;25.40;54.70
59533;DHT22;45351;53.596;10.000;2022-08-03T11:20:48;25.40;54.70
59533;DHT22;45351;53.596;10.000;2022-08-03T11:23:19;25.40;54.70
59533;DHT22;45351;53.596;10.000;2022-08-03T11:26:12;25.50;54.80
59533;DHT22;45351;53.596;10.000;2022-08-03T11:28:40;25.50;55.40
59533;DHT22;45351;53.596;10.000;2022-08-03T11:31:45;25.40;54.80
59533;DHT22;45351;53.596;10.000;2022-08-03T11:34:14;25.40;55.40
59533;DHT22;45351;53.596;10.000;2022-08-03T11:39:48;25.50;54.80
59533;DHT22;45351;53.596;10.000;2022-08-03T11:42:38;25.40;54.70
59533;DHT22;45351;53.596;10.000;2022-08-03T11:45:07;25.50;54.80
59533;DHT22;45351;53.596;10.000;2022-08-03T11:47:37;25.40;54.70
59533;DHT22;45351;53.596;10.000;2022-08-03T11:50:05;25.50;54.80
59533;DHT22;45351;53.596;10.000;2022-08-03T11:52:38;25.50;54.70
59533;DHT22;45351;53.596;10.000;2022-08-03T11:55:10;25.40;54.70
59533;DHT22;45351;53.596;10.000;2022-08-03T11:57:39;25.50;54.70
59533;DHT22;45351;53.596;10.000;2022-08-03T12:00:23;25.50;54.70
59533;DHT22;45351;53.596;10.000;2022-08-03T12:03:01;25.50;54.60
59533;DHT22;45351;53.596;10.000;2022-08-03T12:05:36;25.50;54.60
59533;DHT22;45351;53.596;10.000;2022-08-03T12:08:04;25.40;54.60
59533;DHT22;45351;53.596;10.000;2022-08-03T12:10:31;25.50;54.60
59533;DHT22;45351;53.596;10.000;2022-08-03T12:13:01;25.50;54.50
59533;DHT22;45351;53.596;10.000;2022-08-03T12:15:31;25.50;54.50
59533;DHT22;45351;53.596;10.000;2022-08-03T12:17:59;25.50;54.50
59533;DHT22;45351;53.596;10.000;2022-08-03T12:20:29;25.50;54.50
59533;DHT22;45351;53.596;10.000;2022-08-03T12:23:02;25.50;54.50
59533;DHT22;45351;53.596;10.000;2022-08-03T12:25:30;25.50;54.50
59533;DHT22;45351;53.596;10.000;2022-08-03T12:28:08;25.50;54.50
59533;DHT22;45351;53.596;10.000;2022-08-03T12:30:35;25.50;54.40
59533;DHT22;45351;53.596;10.000;2022-08-03T12:33:20;25.50;54.50
59533;DHT22;45351;53.596;10.000;2022-08-03T12:35:49;25.60;54.60
59533;DHT22;45351;53.596;10.000;2022-08-03T12:38:20;25.60;54.60
59533;DHT22;45351;53.596;10.000;2022-08-03T12:40:56;25.60;54.50
59533;DHT22;45351;53.596;10.000;2022-08-03T12:43:24;25.50;54.40
59533;DHT22;45351;53.596;10.000;2022-08-03T12:46:05;25.60;54.40
59533;DHT22;45351;53.596;10.000;2022-08-03T12:48:32;25.50;54.30
59533;DHT22;45351;53.596;10.000;2022-08-03T12:51:07;25.50;54.30
59533;DHT22;45351;53.596;10.000;2022-08-03T12:53:34;25.60;54.40
59533;DHT22;45351;53.596;10.000;2022-08-03T12:56:01;25.60;54.30
59533;DHT22;45351;53.596;10.000;2022-08-03T12:58:31;25.50;54.20
59533;DHT22;45351;53.596;10.000;2022-08-03T13:01:02;25.60;54.30
59533;DHT22;45351;53.596;10.000;2022-08-03T13:03:38;25.60;54.30
59533;DHT22;45351;53.596;10.000;2022-08-03T13:06:10;25.60;54.30
59533;DHT22;45351;53.596;10.000;2022-08-03T13:08:37;25.60;54.30
59533;DHT22;45351;53.596;10.000;2022-08-03T13:11:17;25.60;54.40
59533;DHT22;45351;53.596;10.000;2022-08-03T13:13:45;25.60;54.40
59533;DHT22;45351;53.596;10.000;2022-08-03T13:16:12;25.60;54.30
59533;DHT22;45351;53.596;10.000;2022-08-03T13:18:39;25.60;54.30
59533;DHT22;45351;53.596;10.000;2022-08-03T13:21:06;25.60;54.30
59533;DHT22;45351;53.596;10.000;2022-08-03T13:23:33;25.60;54.30
59533;DHT22;45351;53.596;10.000;2022-08-03T13:26:00;25.60;54.30
59533;DHT22;45351;53.596;10.000;2022-08-03T13:28:27;25.60;54.30
59533;DHT22;45351;53.596;10.000;2022-08-03T13:30:55;25.60;54.30
59533;DHT22;45351;53.596;10.000;2022-08-03T13:33:22;25.60;54.30
59533;DHT22;45351;53.596;10.000;2022-08-03T13:35:49;25.60;54.20
59533;DHT22;45351;53.596;10.000;2022-08-03T13:38:15;25.60;54.20
59533;DHT22;45351;53.596;10.000;2022-08-03T13:40:42;25.60;54.30
59533;DHT22;45351;53.596;10.000;2022-08-03T13:43:09;25.60;54.20
59533;DHT22;45351;53.596;10.000;2022-08-03T13:45:37;25.60;54.20
59533;DHT22;45351;53.596;10.000;2022-08-03T13:48:05;25.60;54.10
59533;DHT22;45351;53.596;10.000;2022-08-03T13:50:32;25.60;54.10
59533;DHT22;45351;53.596;10.000;2022-08-03T13:52:59;25.60;54.20
59533;DHT22;45351;53.596;10.000;2022-08-03T13:55:26;25.60;54.10
59533;DHT22;45351;53.596;10.000;2022-08-03T13:57:53;25.60;54.20
59533;DHT22;45351;53.596;10.000;2022-08-03T14:00:19;25.60;54.10
59533;DHT22;45351;53.596;10.000;2022-08-03T14:02:50;25.60;54.10
59533;DHT22;45351;53.596;10.000;2022-08-03T14:05:18;25.60;54.20
59533;DHT22;45351;53.596;10.000;2022-08-03T14:07:45;25.60;54.10
59533;DHT22;45351;53.596;10.000;2022-08-03T14:10:13;25.60;54.10
59533;DHT22;45351;53.596;10.000;2022-08-03T14:12:42;25.60;54.10
59533;DHT22;45351;53.596;10.000;2022-08-03T14:15:09;25.60;54.10
59533;DHT22;45351;53.596;10.000;2022-08-03T14:17:38;25.60;54.10
59533;DHT22;45351;53.596;10.000;2022-08-03T14:20:06;25.60;54.10
59533;DHT22;45351;53.596;10.000;2022-08-03T14:22:34;25.60;54.10
59533;DHT22;45351;53.596;10.000;2022-08-03T14:25:01;25.60;54.10
59533;DHT22;45351;53.596;10.000;2022-08-03T14:27:27;25.60;54.10
59533;DHT22;45351;53.596;10.000;2022-08-03T14:29:54;25.60;54.10
59533;DHT22;45351;53.596;10.000;2022-08-03T14:32:24;25.60;54.20
59533;DHT22;45351;53.596;10.000;2022-08-03T14:34:52;25.60;54.20
59533;DHT22;45351;53.596;10.000;2022-08-03T14:37:18;25.60;54.20
59533;DHT22;45351;53.596;10.000;2022-08-03T14:39:47;25.60;54.10
59533;DHT22;45351;53.596;10.000;2022-08-03T14:42:14;25.60;54.10
59533;DHT22;45351;53.596;10.000;2022-08-03T14:44:41;25.60;54.10
59533;DHT22;45351;53.596;10.000;2022-08-03T14:47:08;25.60;54.20
59533;DHT22;45351;53.596;10.000;2022-08-03T14:49:35;25.60;54.10
59533;DHT22;45351;53.596;10.000;2022-08-03T14:52:03;25.60;54.10
59533;DHT22;45351;53.596;10.000;2022-08-03T14:54:30;25.60;54.00
59533;DHT22;45351;53.596;10.000;2022-08-03T14:56:58;25.60;54.10
59533;DHT22;45351;53.596;10.000;2022-08-03T14:59:25;25.60;54.10
59533;DHT22;45351;53.596;10.000;2022-08-03T15:01:52;25.60;54.10
59533;DHT22;45351;53.596;10.000;2022-08-03T15:04:20;25.60;54.10
59533;DHT22;45351;53.596;10.000;2022-08-03T15:06:47;25.60;54.20
59533;DHT22;45351;53.596;10.000;2022-08-03T15:09:14;25.60;54.10
59533;DHT22;45351;53.596;10.000;2022-08-03T15:11:41;25.60;54.10
59533;DHT22;45351;53.596;10.000;2022-08-03T15:14:09;25.60;54.10
59533;DHT22;45351;53.596;10.000;2022-08-03T15:16:36;25.60;54.10
59533;DHT22;45351;53.596;10.000;2022-08-03T15:19:03;25.60;54.10
59533;DHT22;45351;53.596;10.000;2022-08-03T15:21:30;25.60;54.00
59533;DHT22;45351;53.596;10.000;2022-08-03T15:23:57;25.60;54.00
59533;DHT22;45351;53.596;10.000;2022-08-03T15:26:23;25.70;54.20
59533;DHT22;45351;53.596;10.000;2022-08-03T15:28:50;25.60;54.20
59533;DHT22;45351;53.596;10.000;2022-08-03T15:31:21;25.60;54.10
59533;DHT22;45351;53.596;10.000;2022-08-03T15:33:47;25.70;54.20
59533;DHT22;45351;53.596;10.000;2022-08-03T15:36:15;25.70;54.20